createdAt,value
2019-01-19T00:00:06.470Z,12.47
2019-01-19T00:03:07.639Z,13.93
2019-01-19T00:06:23.787Z,11.03
2019-01-19T00:09:25.697Z,12.43
2019-01-19T00:12:36.271Z,12.53
2019-01-19T00:15:13.021Z,12.37
2019-01-19T00:18:23.469Z,13.08
2019-01-19T00:21:21.466Z,13.48
2019-01-19T00:24:31.716Z,12.37
2019-01-19T00:27:52.045Z,10.03
2019-01-19T00:30:37.025Z,13.00
2019-01-19T00:34:06.721Z,10.50
2019-01-19T00:36:54.367Z,10.50
2019-01-19T00:40:24.190Z,16.37
2019-01-19T00:43:29.141Z,13.25
2019-01-19T00:46:49.840Z,12.70
2019-01-19T00:49:30.280Z,14.25
2019-01-19T00:52:22.222Z,15.10
2019-01-19T00:55:17.397Z,17.12
2019-01-19T00:58:33.677Z,11.08
2019-01-19T01:01:32.839Z,17.02
2019-01-19T01:04:29.099Z,12.93
2019-01-19T01:07:37.702Z,11.00
2019-01-19T01:10:25.830Z,13.22
2019-01-19T01:13:40.469Z,10.30
2019-01-19T01:16:26.506Z,17.35
2019-01-19T01:19:23.453Z,15.13
2019-01-19T01:22:05.646Z,13.35
2019-01-19T01:25:07.514Z,13.25
2019-01-19T01:28:14.953Z,15.23
2019-01-19T01:31:23.982Z,12.80
2019-01-19T01:34:44.153Z,11.45
2019-01-19T01:37:57.765Z,14.40
2019-01-19T01:41:21.434Z,12.88
2019-01-19T01:44:24.922Z,15.20
2019-01-19T01:47:30.808Z,13.98
2019-01-19T01:50:29.570Z,12.47
2019-01-19T01:53:39.413Z,11.30
2019-01-19T01:56:13.768Z,14.65
2019-01-19T01:59:19.647Z,16.02
2019-01-19T02:02:33.633Z,15.43
2019-01-19T02:05:40.379Z,14.20
2019-01-19T02:08:18.581Z,12.47
2019-01-19T02:11:42.322Z,15.83
2019-01-19T02:14:40.861Z,17.50
2019-01-19T02:17:48.840Z,19.15
2019-01-19T02:20:51.074Z,16.80
2019-01-19T02:23:53.106Z,16.30
2019-01-19T02:27:07.593Z,19.10
2019-01-19T02:30:33.906Z,16.75
2019-01-19T02:33:50.333Z,19.12
2019-01-19T02:36:47.734Z,15.68
2019-01-19T02:40:00.932Z,13.75
2019-01-19T02:42:50.881Z,19.77
2019-01-19T02:46:29.217Z,15.90
2019-01-19T02:49:36.860Z,14.83
2019-01-19T02:52:47.481Z,14.53
2019-01-19T02:55:45.786Z,18.77
2019-01-19T02:58:45.686Z,14.23
2019-01-19T03:02:00.139Z,14.75
2019-01-19T03:05:01.531Z,14.87
2019-01-19T03:07:38.671Z,18.00
2019-01-19T03:10:36.688Z,16.42
2019-01-19T03:13:24.172Z,14.73
2019-01-19T03:16:40.306Z,14.60
2019-01-19T03:20:03.617Z,17.27
2019-01-19T03:23:01.314Z,19.55
2019-01-19T03:26:02.263Z,20.92
2019-01-19T03:29:02.239Z,13.78
2019-01-19T03:32:08.586Z,13.62
2019-01-19T03:35:06.017Z,17.00
2019-01-19T03:37:57.838Z,16.70
2019-01-19T03:41:06.222Z,16.45
2019-01-19T03:44:17.561Z,15.78
2019-01-19T03:47:19.734Z,13.10
2019-01-19T03:50:55.662Z,15.32
2019-01-19T03:54:10.234Z,11.43
2019-01-19T03:57:14.043Z,14.28
2019-01-19T04:00:24.685Z,12.70
2019-01-19T04:03:34.745Z,12.63
2019-01-19T04:07:01.277Z,13.13
2019-01-19T04:10:01.238Z,10.45
2019-01-19T04:13:18.466Z,12.10
2019-01-19T04:16:20.305Z,17.35
2019-01-19T04:19:09.111Z,12.07
2019-01-19T04:22:09.543Z,12.78
2019-01-19T04:24:53.386Z,11.85
2019-01-19T04:27:23.754Z,12.70
2019-01-19T04:29:54.101Z,15.70
2019-01-19T04:32:24.482Z,12.70
2019-01-19T04:34:54.854Z,10.98
2019-01-19T04:37:25.244Z,12.03
2019-01-19T04:39:55.614Z,18.25
2019-01-19T04:42:26.092Z,16.65
2019-01-19T04:44:56.462Z,15.88
2019-01-19T04:47:26.843Z,14.60
2019-01-19T04:49:57.201Z,15.28
2019-01-19T04:52:27.560Z,14.18
2019-01-19T04:54:57.928Z,14.23
2019-01-19T04:57:28.310Z,14.85
2019-01-19T04:59:58.678Z,12.95
2019-01-19T05:02:29.354Z,13.48
2019-01-19T05:04:59.717Z,14.75
2019-01-19T05:07:30.103Z,12.10
2019-01-19T05:10:00.458Z,17.35
2019-01-19T05:12:30.843Z,12.10
2019-01-19T05:15:01.333Z,15.03
2019-01-19T05:17:31.770Z,14.73
2019-01-19T05:20:02.130Z,13.70
2019-01-19T05:22:32.505Z,12.73
2019-01-19T05:25:02.943Z,12.20
2019-01-19T05:27:33.318Z,13.50
2019-01-19T05:30:03.873Z,12.98
2019-01-19T05:32:34.424Z,13.58
2019-01-19T05:35:05.157Z,17.05
2019-01-19T05:37:35.541Z,15.93
2019-01-19T05:40:07.037Z,13.53
2019-01-19T05:42:37.425Z,15.08
2019-01-19T05:45:10.160Z,12.43
2019-01-19T05:47:40.522Z,15.55
2019-01-19T05:50:13.995Z,18.35
2019-01-19T05:52:44.354Z,15.68
2019-01-19T05:55:14.798Z,13.53
2019-01-19T05:57:45.195Z,16.23
2019-01-19T06:00:28.078Z,11.45
2019-01-19T06:02:58.462Z,15.58
2019-01-19T06:05:28.830Z,17.48
2019-01-19T06:07:59.201Z,18.27
2019-01-19T06:10:29.570Z,24.72
2019-01-19T06:12:59.941Z,18.20
2019-01-19T06:15:30.327Z,20.05
2019-01-19T06:18:00.703Z,16.23
2019-01-19T06:20:31.091Z,13.13
2019-01-19T06:23:01.457Z,15.98
2019-01-19T06:25:31.986Z,18.45
2019-01-19T06:28:02.346Z,13.53
2019-01-19T06:30:32.726Z,17.10
2019-01-19T06:33:03.094Z,18.82
2019-01-19T06:35:33.486Z,19.52
2019-01-19T06:38:03.954Z,13.28
2019-01-19T06:40:34.418Z,13.35
2019-01-19T06:43:04.815Z,15.00
2019-01-19T06:45:35.175Z,15.28
2019-01-19T06:48:05.866Z,18.32
2019-01-19T06:50:36.221Z,13.55
2019-01-19T06:53:06.598Z,15.05
2019-01-19T06:55:37.591Z,14.80
2019-01-19T06:58:08.088Z,14.65
2019-01-19T07:00:38.542Z,13.15
2019-01-19T07:03:08.907Z,15.00
2019-01-19T07:05:39.273Z,12.88
2019-01-19T07:08:09.661Z,14.93
2019-01-19T07:10:40.038Z,17.02
2019-01-19T07:13:10.443Z,15.00
2019-01-19T07:15:40.798Z,13.13
2019-01-19T07:18:11.178Z,12.00
2019-01-19T07:20:41.617Z,15.93
2019-01-19T07:23:12.111Z,18.75
2019-01-19T07:25:43.406Z,14.65
2019-01-19T07:28:13.935Z,15.10
2019-01-19T07:30:44.326Z,15.60
2019-01-19T07:33:14.809Z,17.62
2019-01-19T07:35:45.212Z,12.03
2019-01-19T07:38:15.593Z,15.55
2019-01-19T07:40:45.967Z,13.15
2019-01-19T07:43:16.833Z,13.68
2019-01-19T07:45:47.198Z,11.57
2019-01-19T07:48:17.865Z,12.70
2019-01-19T07:50:48.243Z,13.38
2019-01-19T07:53:18.633Z,11.83
2019-01-19T07:55:49.030Z,16.45
2019-01-19T07:58:19.397Z,11.68
2019-01-19T08:00:49.845Z,18.32
2019-01-19T08:03:20.218Z,19.52
2019-01-19T08:05:50.606Z,13.95
2019-01-19T08:08:20.971Z,20.65
2019-01-19T08:10:51.415Z,15.28
2019-01-19T08:13:21.806Z,17.12
2019-01-19T08:15:52.162Z,18.27
2019-01-19T08:18:22.603Z,15.63
2019-01-19T08:20:52.994Z,14.38
2019-01-19T08:23:23.356Z,9.65
2019-01-19T08:25:53.728Z,15.18
2019-01-19T08:28:24.116Z,13.68
2019-01-19T08:30:54.509Z,10.90
2019-01-19T08:33:24.861Z,8.83
2019-01-19T08:35:55.423Z,8.10
2019-01-19T08:38:25.776Z,12.03
2019-01-19T08:40:56.295Z,13.55
2019-01-19T08:43:31.078Z,9.25
2019-01-19T08:46:02.298Z,8.93
2019-01-19T08:48:32.974Z,11.43
2019-01-19T08:51:03.373Z,10.60
2019-01-19T08:53:33.933Z,10.60
2019-01-19T08:56:04.383Z,9.38
2019-01-19T08:58:35.188Z,8.18
2019-01-19T09:01:05.586Z,9.28
2019-01-19T09:03:35.941Z,11.80
2019-01-19T09:06:06.312Z,11.48
2019-01-19T09:08:36.694Z,12.10
2019-01-19T09:11:07.075Z,14.43
2019-01-19T09:13:37.459Z,10.28
2019-01-19T09:16:11.432Z,12.45
2019-01-19T09:18:41.843Z,10.78
2019-01-19T09:21:12.217Z,11.25
2019-01-19T09:23:55.466Z,10.50
2019-01-19T09:26:25.870Z,12.23
2019-01-19T09:28:56.270Z,11.88
2019-01-19T09:31:27.023Z,15.45
2019-01-19T09:33:57.593Z,12.80
2019-01-19T09:36:28.077Z,11.38
2019-01-19T09:38:58.478Z,13.93
2019-01-19T09:41:28.937Z,12.58
2019-01-19T09:43:59.351Z,11.40
2019-01-19T09:46:29.753Z,13.78
2019-01-19T09:49:00.202Z,14.65
2019-01-19T09:51:30.708Z,12.13
2019-01-19T09:54:01.242Z,14.33
2019-01-19T09:56:31.647Z,12.20
2019-01-19T09:59:02.075Z,12.35
2019-01-19T10:01:32.464Z,13.78
2019-01-19T10:04:02.869Z,15.28
2019-01-19T10:06:33.367Z,11.43
2019-01-19T10:09:08.730Z,13.88
2019-01-19T10:11:39.120Z,13.83
2019-01-19T10:14:09.709Z,16.35
2019-01-19T10:16:40.174Z,13.15
2019-01-19T10:19:10.637Z,13.50
2019-01-19T10:21:41.065Z,14.87
2019-01-19T10:24:11.544Z,13.68
2019-01-19T10:26:42.021Z,13.62
2019-01-19T10:29:12.610Z,12.78
2019-01-19T10:31:43.010Z,12.63
2019-01-19T10:34:13.366Z,10.30
2019-01-19T10:36:43.772Z,14.07
2019-01-19T10:39:14.221Z,11.97
2019-01-19T10:41:44.686Z,12.82
2019-01-19T10:44:15.091Z,11.63
2019-01-19T10:46:45.578Z,10.08
2019-01-19T10:49:16.014Z,9.55
2019-01-19T10:51:46.432Z,12.95
2019-01-19T10:54:16.861Z,11.70
2019-01-19T10:56:47.259Z,10.50
2019-01-19T10:59:17.826Z,12.05
2019-01-19T11:01:48.233Z,15.55
2019-01-19T11:04:18.675Z,11.88
2019-01-19T11:06:49.197Z,12.63
2019-01-19T11:09:19.656Z,10.20
2019-01-19T11:11:50.188Z,10.78
2019-01-19T11:14:20.587Z,11.68
2019-01-19T11:16:51.055Z,14.33
2019-01-19T11:19:21.474Z,14.87
2019-01-19T11:21:51.882Z,16.90
2019-01-19T11:24:22.289Z,11.80
2019-01-19T11:26:52.799Z,15.32
2019-01-19T11:29:23.208Z,15.03
2019-01-19T11:31:53.638Z,9.13
2019-01-19T11:34:24.105Z,10.80
2019-01-19T11:36:54.605Z,10.53
2019-01-19T11:39:25.017Z,15.40
2019-01-19T11:41:55.494Z,15.63
2019-01-19T11:44:25.996Z,11.12
2019-01-19T11:46:56.409Z,13.83
2019-01-19T11:49:26.825Z,11.35
2019-01-19T11:51:57.240Z,14.78
2019-01-19T11:54:27.791Z,12.60
2019-01-19T11:56:58.189Z,13.75
2019-01-19T11:59:28.618Z,11.90
2019-01-19T12:01:59.047Z,14.58
2019-01-19T12:04:29.458Z,13.65
2019-01-19T12:06:59.919Z,15.05
2019-01-19T12:09:30.315Z,14.68
2019-01-19T12:12:00.762Z,14.20
2019-01-19T12:14:31.189Z,14.50
2019-01-19T12:17:01.650Z,10.95
2019-01-19T12:19:32.131Z,16.45
2019-01-19T12:22:02.663Z,14.38
2019-01-19T12:24:33.069Z,12.03
2019-01-19T12:27:03.510Z,11.75
2019-01-19T12:29:33.903Z,14.60
2019-01-19T12:32:04.510Z,10.10
2019-01-19T12:34:34.918Z,13.65
2019-01-19T12:37:05.345Z,13.50
2019-01-19T12:39:35.787Z,13.48
2019-01-19T12:42:06.189Z,14.35
2019-01-19T12:44:36.630Z,14.95
2019-01-19T12:47:07.144Z,12.73
2019-01-19T12:49:37.634Z,12.45
2019-01-19T12:52:08.259Z,13.80
2019-01-19T12:54:38.649Z,11.45
2019-01-19T12:57:09.096Z,14.15
2019-01-19T12:59:39.506Z,18.30
2019-01-19T13:02:09.915Z,15.70
2019-01-19T13:04:40.322Z,11.55
2019-01-19T13:07:15.538Z,13.78
2019-01-19T13:09:58.776Z,10.95
2019-01-19T13:12:38.670Z,15.32
2019-01-19T13:15:49.217Z,12.37
2019-01-19T13:18:47.398Z,12.78
2019-01-19T13:21:59.047Z,14.58
2019-01-19T13:24:49.710Z,13.32
2019-01-19T13:28:02.811Z,12.03
2019-01-19T13:31:28.327Z,12.00
2019-01-19T13:34:55.347Z,9.90
2019-01-19T13:37:52.048Z,18.98
2019-01-19T13:40:59.547Z,13.35
2019-01-19T13:44:22.176Z,16.35
2019-01-19T13:47:29.655Z,13.48
2019-01-19T13:50:34.854Z,10.63
2019-01-19T13:53:54.273Z,12.98
2019-01-19T13:57:08.841Z,12.75
2019-01-19T14:00:20.325Z,11.15
2019-01-19T14:03:24.115Z,13.95
2019-01-19T14:06:17.005Z,11.18
2019-01-19T14:09:27.362Z,16.93
2019-01-19T14:13:03.392Z,11.93
2019-01-19T14:15:49.423Z,14.78
2019-01-19T14:18:56.759Z,11.48
2019-01-19T14:22:04.837Z,11.45
2019-01-19T14:24:49.294Z,9.00
2019-01-19T14:27:55.283Z,14.00
2019-01-19T14:30:53.525Z,9.20
2019-01-19T14:33:40.242Z,12.15
2019-01-19T14:36:48.087Z,12.23
2019-01-19T14:39:53.064Z,15.35
2019-01-19T14:42:32.450Z,14.10
2019-01-19T14:45:49.947Z,12.63
2019-01-19T14:49:01.583Z,11.40
2019-01-19T14:52:00.249Z,10.95
2019-01-19T14:55:13.524Z,11.33
2019-01-19T14:58:11.356Z,14.00
2019-01-19T15:01:03.483Z,11.15
2019-01-19T15:04:02.842Z,12.55
2019-01-19T15:07:02.675Z,9.93
2019-01-19T15:10:06.201Z,9.50
2019-01-19T15:13:05.669Z,15.35
2019-01-19T15:16:23.409Z,10.95
2019-01-19T15:19:40.966Z,10.63
2019-01-19T15:22:48.141Z,12.23
2019-01-19T15:25:50.330Z,11.57
2019-01-19T15:29:06.165Z,10.40
2019-01-19T15:32:10.626Z,12.28
2019-01-19T15:35:19.204Z,11.48
2019-01-19T15:38:44.780Z,12.00
2019-01-19T15:41:42.589Z,15.65
2019-01-19T15:44:57.015Z,11.73
2019-01-19T15:47:55.349Z,15.32
2019-01-19T15:51:15.809Z,13.90
2019-01-19T15:54:28.030Z,14.40
2019-01-19T15:57:50.674Z,11.57
2019-01-19T16:00:32.382Z,13.43
2019-01-19T16:03:24.732Z,14.85
2019-01-19T16:06:36.314Z,14.75
2019-01-19T16:09:49.566Z,18.05
2019-01-19T16:12:55.760Z,14.50
2019-01-19T16:16:07.115Z,14.53
2019-01-19T16:19:06.095Z,21.40
2019-01-19T16:22:12.027Z,24.32
2019-01-19T16:25:28.643Z,14.00
2019-01-19T16:28:32.487Z,15.93
2019-01-19T16:31:34.931Z,18.90
2019-01-19T16:34:47.936Z,15.40
2019-01-19T16:37:55.440Z,18.15
2019-01-19T16:41:07.505Z,16.90
2019-01-19T16:44:19.666Z,14.45
2019-01-19T16:47:28.242Z,17.12
2019-01-19T16:50:25.765Z,13.98
2019-01-19T16:53:00.522Z,12.18
2019-01-19T16:55:51.605Z,15.80
2019-01-19T16:58:41.459Z,14.38
2019-01-19T17:01:50.344Z,14.20
2019-01-19T17:04:49.925Z,21.90
2019-01-19T17:07:56.346Z,20.40
2019-01-19T17:11:10.669Z,20.82
2019-01-19T17:14:37.310Z,16.23
2019-01-19T17:18:07.090Z,18.12
2019-01-19T17:21:16.022Z,15.70
2019-01-19T17:24:15.447Z,18.10
2019-01-19T17:27:22.762Z,16.97
2019-01-19T17:30:37.773Z,19.87
2019-01-19T17:33:21.924Z,15.78
2019-01-19T17:36:18.022Z,15.83
2019-01-19T17:39:17.827Z,18.30
2019-01-19T17:42:11.005Z,15.80
2019-01-19T17:45:24.677Z,16.97
2019-01-19T17:48:08.297Z,20.70
2019-01-19T17:51:00.173Z,14.58
2019-01-19T17:54:27.098Z,22.07
2019-01-19T17:57:39.505Z,20.20
2019-01-19T18:00:20.605Z,17.30
2019-01-19T18:03:23.065Z,25.00
2019-01-19T18:06:34.435Z,23.45
2019-01-19T18:09:57.851Z,20.32
2019-01-19T18:13:12.645Z,22.65
2019-01-19T18:16:29.797Z,20.68
2019-01-19T18:19:49.714Z,23.15
2019-01-19T18:23:00.927Z,20.92
2019-01-19T18:26:08.373Z,22.48
2019-01-19T18:29:04.068Z,27.85
2019-01-19T18:31:46.309Z,26.52
2019-01-19T18:34:41.938Z,29.70
2019-01-19T18:38:03.284Z,25.43
2019-01-19T18:41:17.086Z,20.85
2019-01-19T18:44:35.040Z,26.87
2019-01-19T18:47:48.413Z,23.45
2019-01-19T18:51:08.055Z,27.20
2019-01-19T18:54:13.145Z,27.50
2019-01-19T18:57:22.636Z,26.70
2019-01-19T19:00:17.362Z,29.15
2019-01-19T19:03:33.879Z,29.87
2019-01-19T19:06:21.811Z,27.67
2019-01-19T19:09:34.720Z,29.32
2019-01-19T19:12:29.958Z,39.60
2019-01-19T19:15:22.522Z,32.45
2019-01-19T19:18:32.750Z,33.35
2019-01-19T19:21:44.163Z,30.80
2019-01-19T19:24:57.702Z,36.75
2019-01-19T19:28:03.762Z,35.78
2019-01-19T19:30:51.267Z,29.98
2019-01-19T19:34:02.837Z,34.53
2019-01-19T19:37:02.987Z,36.35
2019-01-19T19:40:19.383Z,34.18
2019-01-19T19:43:28.154Z,54.45
2019-01-19T19:46:25.198Z,41.15
2019-01-19T19:49:21.300Z,35.30
2019-01-19T19:52:02.918Z,29.65
2019-01-19T19:54:34.327Z,29.77
2019-01-19T19:57:05.150Z,37.67
2019-01-19T19:59:35.577Z,40.80
2019-01-19T20:02:06.024Z,35.90
2019-01-19T20:04:36.439Z,32.67
2019-01-19T20:07:06.834Z,31.73
2019-01-19T20:09:37.228Z,32.53
2019-01-19T20:12:08.522Z,33.45
2019-01-19T20:14:38.960Z,33.38
2019-01-19T20:17:09.955Z,33.48
2019-01-19T20:19:40.333Z,33.20
2019-01-19T20:22:10.719Z,29.10
2019-01-19T20:24:41.065Z,28.67
2019-01-19T20:27:11.461Z,29.18
2019-01-19T20:29:41.830Z,29.30
2019-01-19T20:32:12.215Z,33.02
2019-01-19T20:34:42.570Z,30.72
2019-01-19T20:37:12.986Z,31.15
2019-01-19T20:39:43.385Z,27.45
2019-01-19T20:42:13.790Z,32.17
2019-01-19T20:44:44.161Z,25.08
2019-01-19T20:47:14.582Z,30.82
2019-01-19T20:49:44.960Z,30.48
2019-01-19T20:52:15.380Z,30.23
2019-01-19T20:54:45.813Z,31.17
2019-01-19T20:57:17.778Z,32.23
2019-01-19T20:59:48.346Z,30.52
2019-01-19T21:02:18.802Z,29.52
2019-01-19T21:04:49.298Z,27.87
2019-01-19T21:07:19.703Z,31.05
2019-01-19T21:09:50.089Z,30.72
2019-01-19T21:12:20.549Z,25.72
2019-01-19T21:14:50.963Z,25.45
2019-01-19T21:17:21.384Z,30.12
2019-01-19T21:19:51.789Z,26.77
2019-01-19T21:22:22.183Z,23.15
2019-01-19T21:24:53.909Z,28.23
2019-01-19T21:27:24.398Z,24.45
2019-01-19T21:29:54.803Z,22.32
2019-01-19T21:32:25.231Z,27.30
2019-01-19T21:34:55.686Z,23.90
2019-01-19T21:37:26.097Z,23.65
2019-01-19T21:39:56.489Z,22.75
2019-01-19T21:42:26.969Z,25.85
2019-01-19T21:44:58.967Z,23.75
2019-01-19T21:47:29.393Z,35.30
2019-01-19T21:49:59.851Z,29.27
2019-01-19T21:52:30.301Z,32.23
2019-01-19T21:55:00.754Z,27.45
2019-01-19T21:57:31.165Z,25.92
2019-01-19T22:00:01.607Z,29.18
2019-01-19T22:02:32.101Z,22.00
2019-01-19T22:05:02.583Z,28.50
2019-01-19T22:07:33.123Z,28.95
2019-01-19T22:10:03.766Z,28.23
2019-01-19T22:12:34.277Z,26.75
2019-01-19T22:15:06.322Z,27.67
2019-01-19T22:17:39.826Z,28.77
2019-01-19T22:20:10.566Z,28.67
2019-01-19T22:22:41.215Z,30.52
2019-01-19T22:25:11.817Z,26.12
2019-01-19T22:27:47.601Z,25.88
2019-01-19T22:30:23.137Z,29.23
2019-01-19T22:32:55.367Z,38.28
2019-01-19T22:35:28.533Z,31.23
2019-01-19T22:37:59.026Z,29.48
2019-01-19T22:40:29.457Z,29.72
2019-01-19T22:43:02.895Z,26.75
2019-01-19T22:45:33.278Z,31.20
2019-01-19T22:48:03.682Z,31.90
2019-01-19T22:50:34.150Z,32.42
2019-01-19T22:53:05.413Z,28.47
2019-01-19T22:55:35.820Z,22.73
2019-01-19T22:58:06.486Z,24.12
2019-01-19T23:01:23.026Z,35.40
2019-01-19T23:03:53.750Z,27.25
2019-01-19T23:06:24.137Z,36.45
2019-01-19T23:08:54.541Z,34.08
2019-01-19T23:11:24.945Z,28.55
2019-01-19T23:13:55.592Z,32.30
2019-01-19T23:16:25.999Z,35.60
2019-01-19T23:18:56.463Z,32.23
2019-01-19T23:21:26.876Z,32.95
2019-01-19T23:23:57.310Z,27.22
2019-01-19T23:26:28.241Z,32.78
2019-01-19T23:28:58.652Z,24.40
2019-01-19T23:31:29.046Z,32.13
2019-01-19T23:33:59.417Z,35.10
2019-01-19T23:36:29.834Z,30.50
2019-01-19T23:39:00.209Z,34.30
2019-01-19T23:41:30.586Z,28.67
2019-01-19T23:44:00.988Z,38.75
2019-01-19T23:46:31.454Z,27.82
2019-01-19T23:49:01.843Z,31.23
2019-01-19T23:51:32.309Z,29.37
2019-01-19T23:54:02.689Z,31.77
2019-01-19T23:56:33.106Z,26.60
2019-01-19T23:59:03.506Z,25.27
